sensor_id;sensor_type;location;lat;lon;timestamp;P1;durP1;ratioP1;P2;durP2;ratioP2
42244;SDS011;27912;51.828;5.688;2023-03-31T00:01:33;13.02;;;1.27;;
42244;SDS011;27912;51.828;5.688;2023-03-31T00:03:59;9.65;;;1.23;;
42244;SDS011;27912;51.828;5.688;2023-03-31T00:06:29;9.27;;;1.35;;
42244;SDS011;27912;51.828;5.688;2023-03-31T00:09:05;10.43;;;1.85;;
42244;SDS011;27912;51.828;5.688;2023-03-31T00:11:32;10.70;;;1.77;;
42244;SDS011;27912;51.828;5.688;2023-03-31T00:13:58;7.25;;;1.48;;
42244;SDS011;27912;51.828;5.688;2023-03-31T00:16:24;11.50;;;1.85;;
42244;SDS011;27912;51.828;5.688;2023-03-31T00:18:50;10.70;;;1.50;;
42244;SDS011;27912;51.828;5.688;2023-03-31T00:21:17;15.25;;;2.00;;
42244;SDS011;27912;51.828;5.688;2023-03-31T00:23:54;8.45;;;1.15;;
42244;SDS011;27912;51.828;5.688;2023-03-31T00:26:21;12.15;;;1.60;;
42244;SDS011;27912;51.828;5.688;2023-03-31T00:28:48;9.95;;;2.00;;
42244;SDS011;27912;51.828;5.688;2023-03-31T00:31:14;10.35;;;1.58;;
42244;SDS011;27912;51.828;5.688;2023-03-31T00:33:40;14.02;;;1.38;;
42244;SDS011;27912;51.828;5.688;2023-03-31T00:36:06;7.05;;;1.25;;
42244;SDS011;27912;51.828;5.688;2023-03-31T00:38:32;8.52;;;1.27;;
42244;SDS011;27912;51.828;5.688;2023-03-31T00:40:58;7.68;;;1.20;;
42244;SDS011;27912;51.828;5.688;2023-03-31T00:43:35;7.25;;;1.38;;
42244;SDS011;27912;51.828;5.688;2023-03-31T00:48:41;7.38;;;1.23;;
42244;SDS011;27912;51.828;5.688;2023-03-31T00:51:17;8.13;;;1.00;;
42244;SDS011;27912;51.828;5.688;2023-03-31T00:53:46;9.95;;;1.30;;
42244;SDS011;27912;51.828;5.688;2023-03-31T00:56:19;4.93;;;0.88;;
42244;SDS011;27912;51.828;5.688;2023-03-31T00:58:46;4.57;;;0.60;;
42244;SDS011;27912;51.828;5.688;2023-03-31T01:01:14;6.00;;;0.70;;
42244;SDS011;27912;51.828;5.688;2023-03-31T01:03:43;5.65;;;0.60;;
42244;SDS011;27912;51.828;5.688;2023-03-31T01:06:10;4.70;;;0.77;;
42244;SDS011;27912;51.828;5.688;2023-03-31T01:08:39;6.60;;;1.05;;
42244;SDS011;27912;51.828;5.688;2023-03-31T01:11:05;7.80;;;0.90;;
42244;SDS011;27912;51.828;5.688;2023-03-31T01:13:33;7.57;;;0.70;;
42244;SDS011;27912;51.828;5.688;2023-03-31T01:16:00;8.55;;;0.90;;
42244;SDS011;27912;51.828;5.688;2023-03-31T01:18:26;5.20;;;0.82;;
42244;SDS011;27912;51.828;5.688;2023-03-31T01:31:54;12.43;;;1.38;;
42244;SDS011;27912;51.828;5.688;2023-03-31T01:40:08;11.38;;;0.80;;
42244;SDS011;27912;51.828;5.688;2023-03-31T01:43:01;7.70;;;1.10;;
42244;SDS011;27912;51.828;5.688;2023-03-31T01:45:53;9.23;;;1.33;;
42244;SDS011;27912;51.828;5.688;2023-03-31T01:48:45;9.82;;;0.80;;
42244;SDS011;27912;51.828;5.688;2023-03-31T01:51:15;6.22;;;1.00;;
42244;SDS011;27912;51.828;5.688;2023-03-31T01:54:18;8.82;;;0.77;;
42244;SDS011;27912;51.828;5.688;2023-03-31T01:56:51;10.15;;;0.80;;
42244;SDS011;27912;51.828;5.688;2023-03-31T01:59:27;5.72;;;1.10;;
42244;SDS011;27912;51.828;5.688;2023-03-31T02:01:58;6.85;;;0.70;;
42244;SDS011;27912;51.828;5.688;2023-03-31T02:04:49;7.85;;;1.13;;
42244;SDS011;27912;51.828;5.688;2023-03-31T02:07:23;9.10;;;0.75;;
42244;SDS011;27912;51.828;5.688;2023-03-31T02:09:57;7.65;;;0.75;;
42244;SDS011;27912;51.828;5.688;2023-03-31T02:12:27;8.98;;;0.95;;
42244;SDS011;27912;51.828;5.688;2023-03-31T02:14:55;7.95;;;0.85;;
42244;SDS011;27912;51.828;5.688;2023-03-31T02:17:24;9.63;;;0.75;;
42244;SDS011;27912;51.828;5.688;2023-03-31T02:19:54;8.68;;;0.90;;
42244;SDS011;27912;51.828;5.688;2023-03-31T02:22:22;12.90;;;0.80;;
42244;SDS011;27912;51.828;5.688;2023-03-31T02:24:49;6.50;;;1.02;;
42244;SDS011;27912;51.828;5.688;2023-03-31T02:29:59;9.15;;;0.85;;
42244;SDS011;27912;51.828;5.688;2023-03-31T02:32:41;11.90;;;1.20;;
42244;SDS011;27912;51.828;5.688;2023-03-31T02:35:09;8.32;;;0.85;;
42244;SDS011;27912;51.828;5.688;2023-03-31T02:37:43;7.97;;;0.80;;
42244;SDS011;27912;51.828;5.688;2023-03-31T02:40:11;8.00;;;0.73;;
42244;SDS011;27912;51.828;5.688;2023-03-31T02:42:43;10.68;;;0.95;;
42244;SDS011;27912;51.828;5.688;2023-03-31T02:48:24;10.20;;;0.80;;
42244;SDS011;27912;51.828;5.688;2023-03-31T02:51:02;8.88;;;0.60;;
42244;SDS011;27912;51.828;5.688;2023-03-31T02:56:30;5.95;;;0.60;;
42244;SDS011;27912;51.828;5.688;2023-03-31T02:59:14;7.90;;;0.70;;
42244;SDS011;27912;51.828;5.688;2023-03-31T03:04:53;9.38;;;1.00;;
42244;SDS011;27912;51.828;5.688;2023-03-31T03:07:46;6.00;;;0.98;;
42244;SDS011;27912;51.828;5.688;2023-03-31T03:10:26;8.75;;;1.10;;
42244;SDS011;27912;51.828;5.688;2023-03-31T03:13:26;9.52;;;0.70;;
42244;SDS011;27912;51.828;5.688;2023-03-31T03:16:07;3.58;;;0.60;;
42244;SDS011;27912;51.828;5.688;2023-03-31T03:18:42;9.80;;;1.17;;
42244;SDS011;27912;51.828;5.688;2023-03-31T03:21:09;6.28;;;0.50;;
42244;SDS011;27912;51.828;5.688;2023-03-31T03:23:35;5.38;;;0.60;;
42244;SDS011;27912;51.828;5.688;2023-03-31T03:26:01;7.63;;;0.70;;
42244;SDS011;27912;51.828;5.688;2023-03-31T03:28:26;12.85;;;1.10;;
42244;SDS011;27912;51.828;5.688;2023-03-31T03:30:52;9.93;;;1.13;;
42244;SDS011;27912;51.828;5.688;2023-03-31T03:33:17;12.00;;;0.88;;
42244;SDS011;27912;51.828;5.688;2023-03-31T03:35:43;9.70;;;0.95;;
42244;SDS011;27912;51.828;5.688;2023-03-31T03:38:08;12.27;;;1.73;;
42244;SDS011;27912;51.828;5.688;2023-03-31T03:40:34;13.35;;;1.63;;
42244;SDS011;27912;51.828;5.688;2023-03-31T03:43:00;14.02;;;1.30;;
42244;SDS011;27912;51.828;5.688;2023-03-31T03:45:25;10.43;;;1.40;;
42244;SDS011;27912;51.828;5.688;2023-03-31T03:47:51;16.35;;;1.70;;
42244;SDS011;27912;51.828;5.688;2023-03-31T03:50:16;13.45;;;1.40;;
42244;SDS011;27912;51.828;5.688;2023-03-31T03:52:42;9.88;;;1.20;;
42244;SDS011;27912;51.828;5.688;2023-03-31T03:55:08;9.82;;;1.02;;
42244;SDS011;27912;51.828;5.688;2023-03-31T03:57:33;10.35;;;0.80;;
42244;SDS011;27912;51.828;5.688;2023-03-31T03:59:59;13.48;;;1.08;;
42244;SDS011;27912;51.828;5.688;2023-03-31T04:02:25;18.15;;;1.75;;
42244;SDS011;27912;51.828;5.688;2023-03-31T04:04:52;11.57;;;1.13;;
42244;SDS011;27912;51.828;5.688;2023-03-31T04:07:18;15.30;;;1.25;;
42244;SDS011;27912;51.828;5.688;2023-03-31T04:09:43;11.27;;;1.10;;
42244;SDS011;27912;51.828;5.688;2023-03-31T04:12:09;14.30;;;1.50;;
42244;SDS011;27912;51.828;5.688;2023-03-31T04:14:34;11.65;;;1.35;;
42244;SDS011;27912;51.828;5.688;2023-03-31T04:16:59;21.02;;;2.13;;
42244;SDS011;27912;51.828;5.688;2023-03-31T04:19:26;14.25;;;0.93;;
42244;SDS011;27912;51.828;5.688;2023-03-31T04:21:52;19.52;;;2.03;;
42244;SDS011;27912;51.828;5.688;2023-03-31T04:24:28;14.35;;;1.20;;
42244;SDS011;27912;51.828;5.688;2023-03-31T04:26:57;13.95;;;1.50;;
42244;SDS011;27912;51.828;5.688;2023-03-31T04:29:23;12.95;;;1.00;;
42244;SDS011;27912;51.828;5.688;2023-03-31T04:31:51;15.80;;;1.73;;
42244;SDS011;27912;51.828;5.688;2023-03-31T04:34:18;15.27;;;1.90;;
42244;SDS011;27912;51.828;5.688;2023-03-31T04:36:46;8.65;;;0.77;;
42244;SDS011;27912;51.828;5.688;2023-03-31T04:39:15;11.30;;;1.00;;
42244;SDS011;27912;51.828;5.688;2023-03-31T04:41:42;7.47;;;0.60;;
42244;SDS011;27912;51.828;5.688;2023-03-31T04:44:08;11.38;;;0.80;;
42244;SDS011;27912;51.828;5.688;2023-03-31T04:46:34;11.45;;;1.20;;
42244;SDS011;27912;51.828;5.688;2023-03-31T04:49:00;9.57;;;0.93;;
42244;SDS011;27912;51.828;5.688;2023-03-31T04:51:26;10.35;;;0.82;;
42244;SDS011;27912;51.828;5.688;2023-03-31T04:53:52;8.60;;;0.70;;
42244;SDS011;27912;51.828;5.688;2023-03-31T04:56:18;12.80;;;2.30;;
42244;SDS011;27912;51.828;5.688;2023-03-31T04:58:43;8.77;;;0.82;;
42244;SDS011;27912;51.828;5.688;2023-03-31T05:01:09;7.80;;;1.00;;
42244;SDS011;27912;51.828;5.688;2023-03-31T05:03:37;9.10;;;0.95;;
42244;SDS011;27912;51.828;5.688;2023-03-31T05:06:03;8.55;;;0.80;;
42244;SDS011;27912;51.828;5.688;2023-03-31T05:08:29;9.48;;;0.93;;
42244;SDS011;27912;51.828;5.688;2023-03-31T05:10:55;5.07;;;0.50;;
42244;SDS011;27912;51.828;5.688;2023-03-31T05:13:20;9.13;;;1.02;;
42244;SDS011;27912;51.828;5.688;2023-03-31T05:15:46;8.43;;;0.77;;
42244;SDS011;27912;51.828;5.688;2023-03-31T05:18:14;8.13;;;0.98;;
42244;SDS011;27912;51.828;5.688;2023-03-31T05:20:40;11.90;;;1.05;;
42244;SDS011;27912;51.828;5.688;2023-03-31T05:23:06;13.30;;;1.88;;
42244;SDS011;27912;51.828;5.688;2023-03-31T05:25:31;10.70;;;1.23;;
42244;SDS011;27912;51.828;5.688;2023-03-31T05:27:57;9.15;;;0.80;;
42244;SDS011;27912;51.828;5.688;2023-03-31T05:30:24;9.82;;;0.90;;
42244;SDS011;27912;51.828;5.688;2023-03-31T05:32:50;11.98;;;0.95;;
42244;SDS011;27912;51.828;5.688;2023-03-31T05:35:16;9.13;;;0.90;;
42244;SDS011;27912;51.828;5.688;2023-03-31T05:37:42;14.05;;;2.05;;
42244;SDS011;27912;51.828;5.688;2023-03-31T05:40:07;7.10;;;1.00;;
42244;SDS011;27912;51.828;5.688;2023-03-31T05:42:34;8.68;;;1.00;;
42244;SDS011;27912;51.828;5.688;2023-03-31T05:45:00;9.98;;;1.30;;
42244;SDS011;27912;51.828;5.688;2023-03-31T05:47:25;9.88;;;1.25;;
42244;SDS011;27912;51.828;5.688;2023-03-31T05:49:51;8.38;;;1.00;;
42244;SDS011;27912;51.828;5.688;2023-03-31T05:52:17;10.90;;;0.82;;
42244;SDS011;27912;51.828;5.688;2023-03-31T05:54:43;14.38;;;1.65;;
42244;SDS011;27912;51.828;5.688;2023-03-31T05:57:09;8.52;;;0.77;;
42244;SDS011;27912;51.828;5.688;2023-03-31T05:59:34;9.75;;;1.45;;
42244;SDS011;27912;51.828;5.688;2023-03-31T06:02:03;8.50;;;1.20;;
42244;SDS011;27912;51.828;5.688;2023-03-31T06:04:29;4.60;;;0.70;;
42244;SDS011;27912;51.828;5.688;2023-03-31T06:06:58;6.93;;;0.60;;
42244;SDS011;27912;51.828;5.688;2023-03-31T06:09:24;10.05;;;0.75;;
42244;SDS011;27912;51.828;5.688;2023-03-31T06:11:50;11.48;;;0.90;;
42244;SDS011;27912;51.828;5.688;2023-03-31T06:14:16;6.50;;;0.50;;
42244;SDS011;27912;51.828;5.688;2023-03-31T06:16:42;6.05;;;0.50;;
42244;SDS011;27912;51.828;5.688;2023-03-31T06:19:07;5.20;;;0.60;;
42244;SDS011;27912;51.828;5.688;2023-03-31T06:21:33;8.32;;;0.70;;
42244;SDS011;27912;51.828;5.688;2023-03-31T06:23:59;5.05;;;0.45;;
42244;SDS011;27912;51.828;5.688;2023-03-31T06:26:25;4.72;;;0.30;;
42244;SDS011;27912;51.828;5.688;2023-03-31T06:28:51;3.40;;;0.43;;
42244;SDS011;27912;51.828;5.688;2023-03-31T06:31:18;3.83;;;0.40;;
42244;SDS011;27912;51.828;5.688;2023-03-31T06:33:45;5.35;;;0.40;;
42244;SDS011;27912;51.828;5.688;2023-03-31T06:36:11;8.63;;;0.70;;
42244;SDS011;27912;51.828;5.688;2023-03-31T06:38:38;7.63;;;0.40;;
42244;SDS011;27912;51.828;5.688;2023-03-31T06:41:04;3.78;;;0.50;;
42244;SDS011;27912;51.828;5.688;2023-03-31T06:43:31;4.50;;;0.40;;
42244;SDS011;27912;51.828;5.688;2023-03-31T06:45:57;8.23;;;0.55;;
42244;SDS011;27912;51.828;5.688;2023-03-31T06:48:23;4.07;;;0.50;;
42244;SDS011;27912;51.828;5.688;2023-03-31T06:50:50;8.73;;;0.63;;
42244;SDS011;27912;51.828;5.688;2023-03-31T06:53:16;5.32;;;0.50;;
42244;SDS011;27912;51.828;5.688;2023-03-31T06:55:42;3.75;;;0.50;;
42244;SDS011;27912;51.828;5.688;2023-03-31T06:58:07;5.82;;;0.88;;
42244;SDS011;27912;51.828;5.688;2023-03-31T07:00:33;4.65;;;0.40;;
42244;SDS011;27912;51.828;5.688;2023-03-31T07:02:59;4.25;;;0.50;;
42244;SDS011;27912;51.828;5.688;2023-03-31T07:05:25;2.17;;;0.40;;
42244;SDS011;27912;51.828;5.688;2023-03-31T07:07:52;6.15;;;0.70;;
42244;SDS011;27912;51.828;5.688;2023-03-31T07:10:19;6.20;;;0.75;;
42244;SDS011;27912;51.828;5.688;2023-03-31T07:12:45;4.70;;;0.80;;
42244;SDS011;27912;51.828;5.688;2023-03-31T07:15:10;7.82;;;0.70;;
42244;SDS011;27912;51.828;5.688;2023-03-31T07:17:36;7.95;;;0.50;;
42244;SDS011;27912;51.828;5.688;2023-03-31T07:20:05;3.40;;;0.50;;
42244;SDS011;27912;51.828;5.688;2023-03-31T07:22:41;7.65;;;0.60;;
42244;SDS011;27912;51.828;5.688;2023-03-31T07:25:08;3.90;;;0.50;;
42244;SDS011;27912;51.828;5.688;2023-03-31T07:27:35;5.65;;;0.80;;
42244;SDS011;27912;51.828;5.688;2023-03-31T07:30:01;4.90;;;0.40;;
42244;SDS011;27912;51.828;5.688;2023-03-31T07:32:31;3.25;;;0.40;;
42244;SDS011;27912;51.828;5.688;2023-03-31T07:34:57;4.18;;;0.50;;
42244;SDS011;27912;51.828;5.688;2023-03-31T07:37:23;3.58;;;0.40;;
42244;SDS011;27912;51.828;5.688;2023-03-31T07:39:48;4.15;;;0.50;;
42244;SDS011;27912;51.828;5.688;2023-03-31T07:42:14;2.83;;;0.50;;
42244;SDS011;27912;51.828;5.688;2023-03-31T07:44:39;4.57;;;0.50;;
42244;SDS011;27912;51.828;5.688;2023-03-31T07:47:05;4.30;;;0.50;;
42244;SDS011;27912;51.828;5.688;2023-03-31T07:49:31;6.05;;;0.60;;
42244;SDS011;27912;51.828;5.688;2023-03-31T07:51:58;3.97;;;0.60;;
42244;SDS011;27912;51.828;5.688;2023-03-31T07:54:24;3.25;;;0.63;;
42244;SDS011;27912;51.828;5.688;2023-03-31T07:56:50;4.88;;;0.82;;
42244;SDS011;27912;51.828;5.688;2023-03-31T07:59:15;6.80;;;0.60;;
42244;SDS011;27912;51.828;5.688;2023-03-31T08:01:41;3.58;;;0.60;;
42244;SDS011;27912;51.828;5.688;2023-03-31T08:04:08;6.03;;;0.65;;
42244;SDS011;27912;51.828;5.688;2023-03-31T08:06:35;5.38;;;0.65;;
42244;SDS011;27912;51.828;5.688;2023-03-31T08:09:01;6.57;;;0.70;;
42244;SDS011;27912;51.828;5.688;2023-03-31T08:11:29;5.72;;;0.60;;
42244;SDS011;27912;51.828;5.688;2023-03-31T08:13:54;3.53;;;0.77;;
42244;SDS011;27912;51.828;5.688;2023-03-31T08:16:20;5.18;;;0.85;;
42244;SDS011;27912;51.828;5.688;2023-03-31T08:18:46;7.72;;;1.20;;
42244;SDS011;27912;51.828;5.688;2023-03-31T08:21:11;6.45;;;0.90;;
42244;SDS011;27912;51.828;5.688;2023-03-31T08:23:37;12.02;;;1.65;;
42244;SDS011;27912;51.828;5.688;2023-03-31T08:26:10;7.43;;;1.00;;
42244;SDS011;27912;51.828;5.688;2023-03-31T08:28:37;7.68;;;1.00;;
42244;SDS011;27912;51.828;5.688;2023-03-31T08:31:03;9.38;;;1.23;;
42244;SDS011;27912;51.828;5.688;2023-03-31T08:33:30;12.73;;;1.42;;
42244;SDS011;27912;51.828;5.688;2023-03-31T08:35:56;6.65;;;1.10;;
42244;SDS011;27912;51.828;5.688;2023-03-31T08:38:26;10.70;;;1.15;;
42244;SDS011;27912;51.828;5.688;2023-03-31T08:40:51;9.88;;;1.23;;
42244;SDS011;27912;51.828;5.688;2023-03-31T08:43:25;13.38;;;1.35;;
42244;SDS011;27912;51.828;5.688;2023-03-31T08:45:54;11.30;;;1.30;;
42244;SDS011;27912;51.828;5.688;2023-03-31T08:50:55;10.68;;;1.10;;
42244;SDS011;27912;51.828;5.688;2023-03-31T08:53:45;11.15;;;1.05;;
42244;SDS011;27912;51.828;5.688;2023-03-31T08:56:20;12.00;;;1.27;;
42244;SDS011;27912;51.828;5.688;2023-03-31T08:58:50;15.02;;;1.60;;
42244;SDS011;27912;51.828;5.688;2023-03-31T09:06:58;14.27;;;1.38;;
42244;SDS011;27912;51.828;5.688;2023-03-31T09:09:45;12.82;;;1.63;;
42244;SDS011;27912;51.828;5.688;2023-03-31T09:12:45;11.90;;;1.50;;
42244;SDS011;27912;51.828;5.688;2023-03-31T09:15:28;9.32;;;1.30;;
42244;SDS011;27912;51.828;5.688;2023-03-31T09:18:06;17.48;;;1.50;;
42244;SDS011;27912;51.828;5.688;2023-03-31T09:20:42;11.93;;;1.65;;
42244;SDS011;27912;51.828;5.688;2023-03-31T09:23:18;14.10;;;1.20;;
42244;SDS011;27912;51.828;5.688;2023-03-31T09:25:57;12.48;;;1.65;;
42244;SDS011;27912;51.828;5.688;2023-03-31T09:28:29;11.98;;;1.73;;
42244;SDS011;27912;51.828;5.688;2023-03-31T09:31:03;12.10;;;1.52;;
42244;SDS011;27912;51.828;5.688;2023-03-31T09:33:37;20.25;;;2.08;;
42244;SDS011;27912;51.828;5.688;2023-03-31T09:36:12;11.07;;;1.50;;
42244;SDS011;27912;51.828;5.688;2023-03-31T09:38:40;16.23;;;1.83;;
42244;SDS011;27912;51.828;5.688;2023-03-31T09:41:07;17.05;;;2.15;;
42244;SDS011;27912;51.828;5.688;2023-03-31T09:43:33;13.30;;;1.58;;
42244;SDS011;27912;51.828;5.688;2023-03-31T09:45:59;16.85;;;1.40;;
42244;SDS011;27912;51.828;5.688;2023-03-31T09:48:26;10.70;;;1.10;;
42244;SDS011;27912;51.828;5.688;2023-03-31T09:50:57;15.73;;;1.38;;
42244;SDS011;27912;51.828;5.688;2023-03-31T09:56:47;13.98;;;1.23;;
42244;SDS011;27912;51.828;5.688;2023-03-31T09:59:17;11.52;;;1.95;;
42244;SDS011;27912;51.828;5.688;2023-03-31T10:01:59;15.35;;;1.63;;
42244;SDS011;27912;51.828;5.688;2023-03-31T10:04:28;15.52;;;2.00;;
42244;SDS011;27912;51.828;5.688;2023-03-31T10:06:57;14.75;;;1.15;;
42244;SDS011;27912;51.828;5.688;2023-03-31T10:09:31;13.15;;;2.05;;
42244;SDS011;27912;51.828;5.688;2023-03-31T10:12:02;15.02;;;1.75;;
42244;SDS011;27912;51.828;5.688;2023-03-31T10:14:40;9.52;;;1.02;;
42244;SDS011;27912;51.828;5.688;2023-03-31T10:17:12;10.57;;;1.33;;
42244;SDS011;27912;51.828;5.688;2023-03-31T10:19:46;11.15;;;1.58;;
42244;SDS011;27912;51.828;5.688;2023-03-31T10:22:25;11.30;;;1.02;;
42244;SDS011;27912;51.828;5.688;2023-03-31T10:25:07;10.85;;;1.23;;
42244;SDS011;27912;51.828;5.688;2023-03-31T10:27:46;8.57;;;1.77;;
42244;SDS011;27912;51.828;5.688;2023-03-31T10:30:17;19.08;;;2.42;;
42244;SDS011;27912;51.828;5.688;2023-03-31T10:32:46;13.40;;;1.67;;
42244;SDS011;27912;51.828;5.688;2023-03-31T10:35:23;9.32;;;1.15;;
42244;SDS011;27912;51.828;5.688;2023-03-31T10:37:54;9.95;;;1.63;;
42244;SDS011;27912;51.828;5.688;2023-03-31T10:40:24;10.07;;;1.13;;
42244;SDS011;27912;51.828;5.688;2023-03-31T10:42:59;11.20;;;1.38;;
42244;SDS011;27912;51.828;5.688;2023-03-31T10:45:50;9.23;;;0.98;;
42244;SDS011;27912;51.828;5.688;2023-03-31T10:48:26;10.13;;;1.00;;
42244;SDS011;27912;51.828;5.688;2023-03-31T10:51:01;10.02;;;0.90;;
42244;SDS011;27912;51.828;5.688;2023-03-31T10:53:41;10.05;;;1.02;;
42244;SDS011;27912;51.828;5.688;2023-03-31T10:58:54;8.80;;;0.70;;
42244;SDS011;27912;51.828;5.688;2023-03-31T11:01:27;9.07;;;1.10;;
42244;SDS011;27912;51.828;5.688;2023-03-31T11:04:27;7.07;;;0.93;;
42244;SDS011;27912;51.828;5.688;2023-03-31T11:07:18;8.05;;;1.13;;
42244;SDS011;27912;51.828;5.688;2023-03-31T11:09:51;11.80;;;1.00;;
42244;SDS011;27912;51.828;5.688;2023-03-31T11:12:41;10.38;;;1.13;;
42244;SDS011;27912;51.828;5.688;2023-03-31T11:15:32;8.02;;;1.95;;
42244;SDS011;27912;51.828;5.688;2023-03-31T11:26:18;12.10;;;1.13;;
42244;SDS011;27912;51.828;5.688;2023-03-31T11:31:53;7.40;;;0.80;;
42244;SDS011;27912;51.828;5.688;2023-03-31T11:45:57;8.50;;;0.90;;
42244;SDS011;27912;51.828;5.688;2023-03-31T11:48:40;9.38;;;1.35;;
42244;SDS011;27912;51.828;5.688;2023-03-31T11:51:41;10.55;;;0.77;;
42244;SDS011;27912;51.828;5.688;2023-03-31T11:54:15;13.35;;;1.08;;
42244;SDS011;27912;51.828;5.688;2023-03-31T11:56:48;8.73;;;0.70;;
42244;SDS011;27912;51.828;5.688;2023-03-31T11:59:15;10.73;;;1.45;;
42244;SDS011;27912;51.828;5.688;2023-03-31T12:06:49;10.15;;;0.90;;
42244;SDS011;27912;51.828;5.688;2023-03-31T12:12:17;10.85;;;1.20;;
42244;SDS011;27912;51.828;5.688;2023-03-31T12:17:42;10.00;;;0.80;;
42244;SDS011;27912;51.828;5.688;2023-03-31T12:20:19;8.25;;;1.33;;
42244;SDS011;27912;51.828;5.688;2023-03-31T12:22:50;10.35;;;1.05;;
42244;SDS011;27912;51.828;5.688;2023-03-31T12:25:19;11.73;;;1.00;;
42244;SDS011;27912;51.828;5.688;2023-03-31T12:27:50;6.18;;;0.80;;
42244;SDS011;27912;51.828;5.688;2023-03-31T12:52:43;8.13;;;1.30;;
42244;SDS011;27912;51.828;5.688;2023-03-31T13:01:09;8.52;;;0.75;;
42244;SDS011;27912;51.828;5.688;2023-03-31T13:06:04;7.47;;;0.60;;
42244;SDS011;27912;51.828;5.688;2023-03-31T13:11:18;4.95;;;0.50;;
42244;SDS011;27912;51.828;5.688;2023-03-31T13:13:59;6.72;;;1.13;;
42244;SDS011;27912;51.828;5.688;2023-03-31T13:16:43;4.45;;;0.40;;
42244;SDS011;27912;51.828;5.688;2023-03-31T13:19:26;7.60;;;0.60;;
42244;SDS011;27912;51.828;5.688;2023-03-31T13:21:58;8.43;;;0.80;;
42244;SDS011;27912;51.828;5.688;2023-03-31T13:24:25;11.48;;;0.90;;
42244;SDS011;27912;51.828;5.688;2023-03-31T13:26:52;9.07;;;0.80;;
42244;SDS011;27912;51.828;5.688;2023-03-31T13:29:41;8.43;;;0.80;;
42244;SDS011;27912;51.828;5.688;2023-03-31T13:34:52;7.57;;;0.80;;
42244;SDS011;27912;51.828;5.688;2023-03-31T13:37:41;9.40;;;1.05;;
42244;SDS011;27912;51.828;5.688;2023-03-31T13:43:35;6.05;;;0.70;;
42244;SDS011;27912;51.828;5.688;2023-03-31T13:49:34;7.97;;;1.33;;
42244;SDS011;27912;51.828;5.688;2023-03-31T13:52:14;4.20;;;0.52;;
42244;SDS011;27912;51.828;5.688;2023-03-31T14:05:33;5.65;;;0.50;;
42244;SDS011;27912;51.828;5.688;2023-03-31T14:08:11;5.70;;;0.40;;
42244;SDS011;27912;51.828;5.688;2023-03-31T14:13:39;5.85;;;0.40;;
42244;SDS011;27912;51.828;5.688;2023-03-31T14:16:04;3.78;;;0.30;;
42244;SDS011;27912;51.828;5.688;2023-03-31T14:18:31;3.78;;;0.30;;
42244;SDS011;27912;51.828;5.688;2023-03-31T14:32:29;5.38;;;0.50;;
42244;SDS011;27912;51.828;5.688;2023-03-31T14:38:03;5.55;;;0.40;;
42244;SDS011;27912;51.828;5.688;2023-03-31T14:40:34;5.07;;;0.63;;
42244;SDS011;27912;51.828;5.688;2023-03-31T14:43:20;4.13;;;0.22;;
42244;SDS011;27912;51.828;5.688;2023-03-31T14:46:23;6.07;;;0.40;;
42244;SDS011;27912;51.828;5.688;2023-03-31T14:48:46;4.60;;;0.38;;
42244;SDS011;27912;51.828;5.688;2023-03-31T14:51:13;2.15;;;0.30;;
42244;SDS011;27912;51.828;5.688;2023-03-31T14:53:40;4.55;;;0.43;;
42244;SDS011;27912;51.828;5.688;2023-03-31T14:56:10;7.50;;;0.50;;
42244;SDS011;27912;51.828;5.688;2023-03-31T14:58:39;5.87;;;0.40;;
42244;SDS011;27912;51.828;5.688;2023-03-31T15:01:08;6.03;;;0.45;;
42244;SDS011;27912;51.828;5.688;2023-03-31T15:03:53;2.88;;;0.40;;
42244;SDS011;27912;51.828;5.688;2023-03-31T15:06:19;4.55;;;0.40;;
42244;SDS011;27912;51.828;5.688;2023-03-31T15:08:49;4.68;;;0.50;;
42244;SDS011;27912;51.828;5.688;2023-03-31T15:11:19;3.53;;;0.30;;
42244;SDS011;27912;51.828;5.688;2023-03-31T15:13:46;4.40;;;0.38;;
42244;SDS011;27912;51.828;5.688;2023-03-31T15:18:55;4.60;;;0.60;;
42244;SDS011;27912;51.828;5.688;2023-03-31T15:21:23;4.70;;;0.30;;
42244;SDS011;27912;51.828;5.688;2023-03-31T15:23:59;4.93;;;0.43;;
42244;SDS011;27912;51.828;5.688;2023-03-31T15:26:28;5.07;;;0.40;;
42244;SDS011;27912;51.828;5.688;2023-03-31T15:29:00;5.05;;;0.50;;
42244;SDS011;27912;51.828;5.688;2023-03-31T15:31:36;3.42;;;0.40;;
42244;SDS011;27912;51.828;5.688;2023-03-31T15:34:13;4.07;;;0.50;;
42244;SDS011;27912;51.828;5.688;2023-03-31T15:36:40;2.88;;;0.30;;
42244;SDS011;27912;51.828;5.688;2023-03-31T15:39:06;2.08;;;0.20;;
42244;SDS011;27912;51.828;5.688;2023-03-31T15:41:32;3.92;;;0.30;;
42244;SDS011;27912;51.828;5.688;2023-03-31T15:44:07;2.22;;;0.30;;
42244;SDS011;27912;51.828;5.688;2023-03-31T15:46:59;3.17;;;0.28;;
42244;SDS011;27912;51.828;5.688;2023-03-31T15:49:26;2.88;;;0.20;;
42244;SDS011;27912;51.828;5.688;2023-03-31T15:51:54;1.10;;;0.20;;
42244;SDS011;27912;51.828;5.688;2023-03-31T15:54:45;5.03;;;0.40;;
42244;SDS011;27912;51.828;5.688;2023-03-31T15:57:11;1.40;;;0.40;;
42244;SDS011;27912;51.828;5.688;2023-03-31T15:59:43;1.77;;;0.20;;
42244;SDS011;27912;51.828;5.688;2023-03-31T16:02:13;2.95;;;0.15;;
42244;SDS011;27912;51.828;5.688;2023-03-31T16:05:00;1.08;;;0.13;;
42244;SDS011;27912;51.828;5.688;2023-03-31T16:07:28;2.15;;;0.10;;
42244;SDS011;27912;51.828;5.688;2023-03-31T16:13:01;1.33;;;0.10;;
42244;SDS011;27912;51.828;5.688;2023-03-31T16:18:32;0.93;;;0.10;;
42244;SDS011;27912;51.828;5.688;2023-03-31T16:21:04;1.17;;;0.10;;
42244;SDS011;27912;51.828;5.688;2023-03-31T16:23:36;1.30;;;0.10;;
42244;SDS011;27912;51.828;5.688;2023-03-31T16:26:05;3.72;;;0.20;;
42244;SDS011;27912;51.828;5.688;2023-03-31T16:28:32;1.90;;;0.10;;
42244;SDS011;27912;51.828;5.688;2023-03-31T16:31:00;0.75;;;0.10;;
42244;SDS011;27912;51.828;5.688;2023-03-31T16:33:26;0.32;;;0.00;;
42244;SDS011;27912;51.828;5.688;2023-03-31T16:35:54;1.55;;;0.20;;
42244;SDS011;27912;51.828;5.688;2023-03-31T16:38:22;0.65;;;0.10;;
42244;SDS011;27912;51.828;5.688;2023-03-31T16:40:49;0.57;;;0.10;;
42244;SDS011;27912;51.828;5.688;2023-03-31T16:43:18;3.85;;;0.20;;
42244;SDS011;27912;51.828;5.688;2023-03-31T16:45:47;2.28;;;0.20;;
42244;SDS011;27912;51.828;5.688;2023-03-31T16:48:18;2.38;;;0.30;;
42244;SDS011;27912;51.828;5.688;2023-03-31T16:50:46;1.02;;;0.15;;
42244;SDS011;27912;51.828;5.688;2023-03-31T16:53:13;1.42;;;0.20;;
42244;SDS011;27912;51.828;5.688;2023-03-31T16:55:42;1.23;;;0.10;;
42244;SDS011;27912;51.828;5.688;2023-03-31T16:58:08;1.75;;;0.20;;
42244;SDS011;27912;51.828;5.688;2023-03-31T17:00:35;1.73;;;0.20;;
42244;SDS011;27912;51.828;5.688;2023-03-31T17:03:02;0.98;;;0.10;;
42244;SDS011;27912;51.828;5.688;2023-03-31T17:05:28;6.68;;;0.40;;
42244;SDS011;27912;51.828;5.688;2023-03-31T17:07:58;1.00;;;0.22;;
42244;SDS011;27912;51.828;5.688;2023-03-31T17:10:24;1.05;;;0.17;;
42244;SDS011;27912;51.828;5.688;2023-03-31T17:12:50;0.85;;;0.20;;
42244;SDS011;27912;51.828;5.688;2023-03-31T17:15:16;2.00;;;0.25;;
42244;SDS011;27912;51.828;5.688;2023-03-31T17:17:42;1.80;;;0.30;;
42244;SDS011;27912;51.828;5.688;2023-03-31T17:20:08;2.60;;;0.10;;
42244;SDS011;27912;51.828;5.688;2023-03-31T17:22:34;2.13;;;0.20;;
42244;SDS011;27912;51.828;5.688;2023-03-31T17:25:00;2.08;;;0.10;;
42244;SDS011;27912;51.828;5.688;2023-03-31T17:27:27;2.88;;;0.20;;
42244;SDS011;27912;51.828;5.688;2023-03-31T17:29:53;1.58;;;0.10;;
42244;SDS011;27912;51.828;5.688;2023-03-31T17:32:19;1.38;;;0.10;;
42244;SDS011;27912;51.828;5.688;2023-03-31T17:34:45;1.33;;;0.20;;
42244;SDS011;27912;51.828;5.688;2023-03-31T17:37:13;2.25;;;0.17;;
42244;SDS011;27912;51.828;5.688;2023-03-31T17:39:39;3.65;;;0.20;;
42244;SDS011;27912;51.828;5.688;2023-03-31T17:42:04;2.90;;;0.20;;